Glenmont, Maryland
Current Conditions -  °F | °C
As of 2:35 PM on Thursday 27 Nov 2014 (Local Time) from KGAI Reporting Station
Overcast Overcast  
Wind Chill: 37°   Ceiling: 4800
Heat Index: 41°   Visibility: 10mi
Dew Point: 27°   Wind: 6mph
Humidity: 57%   Direction: 340°NNW
Pressure: 30.07"   Gusts: NA
Location:  39.0912°N, 77.0554°W
Report Text: KGAI 271935Z 34005KT 10SM FEW037 BKN048 OVC055 05/M03 A3007 RMK AO1
Loading
Personal Weather Stations






























Interactive Weather Map New forecast layout! Learn more

10-Day Weather Forecast

Advertisements
Track Severe Weather on mobile